sensor_id;sensor_type;location;lat;lon;timestamp;P1;durP1;ratioP1;P2;durP2;ratioP2
9178;SDS011;71287;48.414;11.478;2023-07-24T00:00:49;10.27;;;6.50;;
9178;SDS011;71287;48.414;11.478;2023-07-24T00:03:16;8.73;;;6.53;;
9178;SDS011;71287;48.414;11.478;2023-07-24T00:05:43;8.93;;;6.57;;
9178;SDS011;71287;48.414;11.478;2023-07-24T00:08:11;8.80;;;6.67;;
9178;SDS011;71287;48.414;11.478;2023-07-24T00:10:37;10.10;;;6.43;;
9178;SDS011;71287;48.414;11.478;2023-07-24T00:13:05;9.77;;;6.70;;
9178;SDS011;71287;48.414;11.478;2023-07-24T00:15:31;12.30;;;6.23;;
9178;SDS011;71287;48.414;11.478;2023-07-24T00:17:58;10.53;;;6.73;;
9178;SDS011;71287;48.414;11.478;2023-07-24T00:20:25;8.57;;;6.00;;
9178;SDS011;71287;48.414;11.478;2023-07-24T00:22:52;10.10;;;6.90;;
9178;SDS011;71287;48.414;11.478;2023-07-24T00:25:20;9.07;;;6.20;;
9178;SDS011;71287;48.414;11.478;2023-07-24T00:27:47;9.13;;;6.20;;
9178;SDS011;71287;48.414;11.478;2023-07-24T00:30:14;8.70;;;6.50;;
9178;SDS011;71287;48.414;11.478;2023-07-24T00:32:40;9.30;;;5.57;;
9178;SDS011;71287;48.414;11.478;2023-07-24T00:35:07;8.33;;;6.47;;
9178;SDS011;71287;48.414;11.478;2023-07-24T00:37:34;8.43;;;6.33;;
9178;SDS011;71287;48.414;11.478;2023-07-24T00:40:01;10.57;;;6.33;;
9178;SDS011;71287;48.414;11.478;2023-07-24T00:42:30;8.83;;;5.80;;
9178;SDS011;71287;48.414;11.478;2023-07-24T00:44:57;8.83;;;6.90;;
9178;SDS011;71287;48.414;11.478;2023-07-24T00:47:24;9.17;;;6.23;;
9178;SDS011;71287;48.414;11.478;2023-07-24T00:49:52;8.77;;;6.83;;
9178;SDS011;71287;48.414;11.478;2023-07-24T00:52:20;9.20;;;5.97;;
9178;SDS011;71287;48.414;11.478;2023-07-24T00:54:46;8.63;;;6.00;;
9178;SDS011;71287;48.414;11.478;2023-07-24T00:57:14;7.47;;;5.87;;
9178;SDS011;71287;48.414;11.478;2023-07-24T00:59:42;8.90;;;6.67;;
9178;SDS011;71287;48.414;11.478;2023-07-24T01:02:10;11.33;;;5.87;;
9178;SDS011;71287;48.414;11.478;2023-07-24T01:04:38;9.13;;;5.73;;
9178;SDS011;71287;48.414;11.478;2023-07-24T01:07:05;8.73;;;5.80;;
9178;SDS011;71287;48.414;11.478;2023-07-24T01:09:31;8.10;;;5.60;;
9178;SDS011;71287;48.414;11.478;2023-07-24T01:11:59;6.60;;;5.80;;
9178;SDS011;71287;48.414;11.478;2023-07-24T01:14:32;9.43;;;6.03;;
9178;SDS011;71287;48.414;11.478;2023-07-24T01:17:06;7.20;;;6.37;;
9178;SDS011;71287;48.414;11.478;2023-07-24T01:19:36;10.80;;;6.33;;
9178;SDS011;71287;48.414;11.478;2023-07-24T01:22:09;9.87;;;6.40;;
9178;SDS011;71287;48.414;11.478;2023-07-24T01:24:46;7.50;;;5.90;;
9178;SDS011;71287;48.414;11.478;2023-07-24T01:27:24;7.23;;;5.73;;
9178;SDS011;71287;48.414;11.478;2023-07-24T01:29:52;7.43;;;6.30;;
9178;SDS011;71287;48.414;11.478;2023-07-24T01:32:18;7.47;;;6.00;;
9178;SDS011;71287;48.414;11.478;2023-07-24T01:34:45;8.50;;;6.20;;
9178;SDS011;71287;48.414;11.478;2023-07-24T01:37:13;8.10;;;5.50;;
9178;SDS011;71287;48.414;11.478;2023-07-24T01:39:41;9.17;;;6.97;;
9178;SDS011;71287;48.414;11.478;2023-07-24T01:42:09;7.93;;;6.33;;
9178;SDS011;71287;48.414;11.478;2023-07-24T01:44:37;7.13;;;5.60;;
9178;SDS011;71287;48.414;11.478;2023-07-24T01:47:04;6.73;;;5.67;;
9178;SDS011;71287;48.414;11.478;2023-07-24T01:49:31;7.70;;;6.03;;
9178;SDS011;71287;48.414;11.478;2023-07-24T01:51:58;8.80;;;6.20;;
9178;SDS011;71287;48.414;11.478;2023-07-24T01:54:25;8.50;;;5.37;;
9178;SDS011;71287;48.414;11.478;2023-07-24T01:56:52;8.13;;;6.03;;
9178;SDS011;71287;48.414;11.478;2023-07-24T01:59:18;6.57;;;5.80;;
9178;SDS011;71287;48.414;11.478;2023-07-24T02:01:46;7.63;;;6.20;;
9178;SDS011;71287;48.414;11.478;2023-07-24T02:04:13;7.33;;;6.27;;
9178;SDS011;71287;48.414;11.478;2023-07-24T02:06:40;8.27;;;6.07;;
9178;SDS011;71287;48.414;11.478;2023-07-24T02:09:07;10.80;;;6.73;;
9178;SDS011;71287;48.414;11.478;2023-07-24T02:11:33;9.00;;;6.73;;
9178;SDS011;71287;48.414;11.478;2023-07-24T02:14:00;10.00;;;6.73;;
9178;SDS011;71287;48.414;11.478;2023-07-24T02:16:27;9.57;;;7.10;;
9178;SDS011;71287;48.414;11.478;2023-07-24T02:18:55;8.77;;;6.47;;
9178;SDS011;71287;48.414;11.478;2023-07-24T02:21:22;11.07;;;6.97;;
9178;SDS011;71287;48.414;11.478;2023-07-24T02:23:49;7.07;;;5.57;;
9178;SDS011;71287;48.414;11.478;2023-07-24T02:26:15;7.53;;;6.43;;
9178;SDS011;71287;48.414;11.478;2023-07-24T02:28:42;11.20;;;6.57;;
9178;SDS011;71287;48.414;11.478;2023-07-24T02:31:09;8.50;;;6.53;;
9178;SDS011;71287;48.414;11.478;2023-07-24T02:33:35;9.67;;;6.80;;
9178;SDS011;71287;48.414;11.478;2023-07-24T02:36:03;13.00;;;6.90;;
9178;SDS011;71287;48.414;11.478;2023-07-24T02:38:30;9.53;;;7.10;;
9178;SDS011;71287;48.414;11.478;2023-07-24T02:40:57;8.33;;;6.80;;
9178;SDS011;71287;48.414;11.478;2023-07-24T02:43:24;10.50;;;6.60;;
9178;SDS011;71287;48.414;11.478;2023-07-24T02:45:50;10.10;;;6.83;;
9178;SDS011;71287;48.414;11.478;2023-07-24T02:48:17;9.67;;;7.10;;
9178;SDS011;71287;48.414;11.478;2023-07-24T02:50:44;11.87;;;7.53;;
9178;SDS011;71287;48.414;11.478;2023-07-24T02:53:14;7.47;;;6.27;;
9178;SDS011;71287;48.414;11.478;2023-07-24T02:55:41;10.53;;;7.40;;
9178;SDS011;71287;48.414;11.478;2023-07-24T02:58:08;9.63;;;6.40;;
9178;SDS011;71287;48.414;11.478;2023-07-24T03:00:35;12.27;;;7.20;;
9178;SDS011;71287;48.414;11.478;2023-07-24T03:03:02;10.40;;;7.73;;
9178;SDS011;71287;48.414;11.478;2023-07-24T03:05:29;10.17;;;7.60;;
9178;SDS011;71287;48.414;11.478;2023-07-24T03:07:56;9.07;;;6.60;;
9178;SDS011;71287;48.414;11.478;2023-07-24T03:10:24;10.57;;;7.23;;
9178;SDS011;71287;48.414;11.478;2023-07-24T03:12:51;12.67;;;7.83;;
9178;SDS011;71287;48.414;11.478;2023-07-24T03:15:18;11.60;;;8.07;;
9178;SDS011;71287;48.414;11.478;2023-07-24T03:17:45;8.77;;;7.03;;
9178;SDS011;71287;48.414;11.478;2023-07-24T03:20:13;9.33;;;7.57;;
9178;SDS011;71287;48.414;11.478;2023-07-24T03:22:41;7.83;;;6.93;;
9178;SDS011;71287;48.414;11.478;2023-07-24T03:25:08;9.57;;;7.67;;
9178;SDS011;71287;48.414;11.478;2023-07-24T03:27:36;10.00;;;7.57;;
9178;SDS011;71287;48.414;11.478;2023-07-24T03:30:04;9.43;;;7.30;;
9178;SDS011;71287;48.414;11.478;2023-07-24T03:32:31;9.00;;;7.03;;
9178;SDS011;71287;48.414;11.478;2023-07-24T03:34:58;11.17;;;7.70;;
9178;SDS011;71287;48.414;11.478;2023-07-24T03:37:25;9.30;;;7.60;;
9178;SDS011;71287;48.414;11.478;2023-07-24T03:39:52;10.17;;;7.77;;
9178;SDS011;71287;48.414;11.478;2023-07-24T03:42:28;9.53;;;7.63;;
9178;SDS011;71287;48.414;11.478;2023-07-24T03:44:58;9.53;;;6.97;;
9178;SDS011;71287;48.414;11.478;2023-07-24T03:47:24;15.57;;;7.43;;
9178;SDS011;71287;48.414;11.478;2023-07-24T03:49:51;11.67;;;7.80;;
9178;SDS011;71287;48.414;11.478;2023-07-24T03:52:18;8.80;;;7.00;;
9178;SDS011;71287;48.414;11.478;2023-07-24T03:54:45;9.83;;;6.93;;
9178;SDS011;71287;48.414;11.478;2023-07-24T03:57:12;8.57;;;7.13;;
9178;SDS011;71287;48.414;11.478;2023-07-24T03:59:38;8.57;;;7.47;;
9178;SDS011;71287;48.414;11.478;2023-07-24T04:02:07;9.17;;;7.10;;
9178;SDS011;71287;48.414;11.478;2023-07-24T04:04:33;10.67;;;7.10;;
9178;SDS011;71287;48.414;11.478;2023-07-24T04:07:00;9.80;;;7.07;;
9178;SDS011;71287;48.414;11.478;2023-07-24T04:09:27;9.00;;;7.17;;
9178;SDS011;71287;48.414;11.478;2023-07-24T04:11:54;10.70;;;7.23;;
9178;SDS011;71287;48.414;11.478;2023-07-24T04:14:21;8.57;;;7.67;;
9178;SDS011;71287;48.414;11.478;2023-07-24T04:16:47;9.87;;;6.77;;
9178;SDS011;71287;48.414;11.478;2023-07-24T04:19:16;8.43;;;7.33;;
9178;SDS011;71287;48.414;11.478;2023-07-24T04:21:42;8.37;;;6.97;;
9178;SDS011;71287;48.414;11.478;2023-07-24T04:24:09;9.73;;;7.97;;
9178;SDS011;71287;48.414;11.478;2023-07-24T04:26:36;9.90;;;7.37;;
9178;SDS011;71287;48.414;11.478;2023-07-24T04:29:04;8.67;;;7.20;;
9178;SDS011;71287;48.414;11.478;2023-07-24T04:31:31;9.33;;;7.30;;
9178;SDS011;71287;48.414;11.478;2023-07-24T04:33:58;8.47;;;7.23;;
9178;SDS011;71287;48.414;11.478;2023-07-24T04:36:26;11.50;;;7.63;;
9178;SDS011;71287;48.414;11.478;2023-07-24T04:38:53;12.03;;;7.97;;
9178;SDS011;71287;48.414;11.478;2023-07-24T04:41:20;9.47;;;7.77;;
9178;SDS011;71287;48.414;11.478;2023-07-24T04:43:46;9.60;;;7.03;;
9178;SDS011;71287;48.414;11.478;2023-07-24T04:46:13;11.13;;;7.97;;
9178;SDS011;71287;48.414;11.478;2023-07-24T04:48:40;8.63;;;7.03;;
9178;SDS011;71287;48.414;11.478;2023-07-24T04:51:07;9.47;;;7.47;;
9178;SDS011;71287;48.414;11.478;2023-07-24T04:53:35;9.87;;;8.00;;
9178;SDS011;71287;48.414;11.478;2023-07-24T04:56:01;9.77;;;7.43;;
9178;SDS011;71287;48.414;11.478;2023-07-24T04:58:28;8.80;;;7.50;;
9178;SDS011;71287;48.414;11.478;2023-07-24T05:00:55;9.53;;;8.07;;
9178;SDS011;71287;48.414;11.478;2023-07-24T05:03:22;9.43;;;7.43;;
9178;SDS011;71287;48.414;11.478;2023-07-24T05:05:53;10.80;;;7.40;;
9178;SDS011;71287;48.414;11.478;2023-07-24T05:08:21;9.43;;;7.23;;
9178;SDS011;71287;48.414;11.478;2023-07-24T05:10:54;8.83;;;7.47;;
9178;SDS011;71287;48.414;11.478;2023-07-24T05:13:21;11.07;;;8.10;;
9178;SDS011;71287;48.414;11.478;2023-07-24T05:15:48;9.03;;;7.03;;
9178;SDS011;71287;48.414;11.478;2023-07-24T05:18:15;8.23;;;7.40;;
9178;SDS011;71287;48.414;11.478;2023-07-24T05:20:44;10.50;;;7.90;;
9178;SDS011;71287;48.414;11.478;2023-07-24T05:23:12;8.07;;;7.10;;
9178;SDS011;71287;48.414;11.478;2023-07-24T05:25:39;12.60;;;7.83;;
9178;SDS011;71287;48.414;11.478;2023-07-24T05:28:07;10.70;;;8.47;;
9178;SDS011;71287;48.414;11.478;2023-07-24T05:30:34;8.93;;;7.40;;
9178;SDS011;71287;48.414;11.478;2023-07-24T05:33:01;8.97;;;7.70;;
9178;SDS011;71287;48.414;11.478;2023-07-24T05:35:28;8.53;;;7.60;;
9178;SDS011;71287;48.414;11.478;2023-07-24T05:37:54;8.67;;;6.90;;
9178;SDS011;71287;48.414;11.478;2023-07-24T05:40:21;9.50;;;7.27;;
9178;SDS011;71287;48.414;11.478;2023-07-24T05:42:48;9.87;;;8.20;;
9178;SDS011;71287;48.414;11.478;2023-07-24T05:45:16;9.80;;;7.50;;
9178;SDS011;71287;48.414;11.478;2023-07-24T05:47:43;11.97;;;8.43;;
9178;SDS011;71287;48.414;11.478;2023-07-24T05:50:10;8.77;;;7.57;;
9178;SDS011;71287;48.414;11.478;2023-07-24T05:52:38;12.93;;;8.73;;
9178;SDS011;71287;48.414;11.478;2023-07-24T05:55:05;10.33;;;8.37;;
9178;SDS011;71287;48.414;11.478;2023-07-24T05:57:33;11.37;;;8.50;;
9178;SDS011;71287;48.414;11.478;2023-07-24T06:00:00;14.83;;;8.40;;
9178;SDS011;71287;48.414;11.478;2023-07-24T06:02:28;10.37;;;7.90;;
9178;SDS011;71287;48.414;11.478;2023-07-24T06:04:55;9.40;;;7.07;;
9178;SDS011;71287;48.414;11.478;2023-07-24T06:07:21;10.80;;;8.57;;
9178;SDS011;71287;48.414;11.478;2023-07-24T06:09:48;10.03;;;7.67;;
9178;SDS011;71287;48.414;11.478;2023-07-24T06:12:15;9.35;;;8.15;;
9178;SDS011;71287;48.414;11.478;2023-07-24T06:14:42;11.15;;;7.35;;
9178;SDS011;71287;48.414;11.478;2023-07-24T06:17:09;9.48;;;7.53;;
9178;SDS011;71287;48.414;11.478;2023-07-24T06:19:37;9.38;;;7.85;;
9178;SDS011;71287;48.414;11.478;2023-07-24T06:22:03;9.18;;;8.20;;
9178;SDS011;71287;48.414;11.478;2023-07-24T06:24:30;8.80;;;7.85;;
9178;SDS011;71287;48.414;11.478;2023-07-24T06:26:57;11.02;;;8.02;;
9178;SDS011;71287;48.414;11.478;2023-07-24T06:29:24;10.90;;;8.38;;
9178;SDS011;71287;48.414;11.478;2023-07-24T06:31:50;10.57;;;8.10;;
9178;SDS011;71287;48.414;11.478;2023-07-24T06:34:17;10.15;;;8.50;;
9178;SDS011;71287;48.414;11.478;2023-07-24T06:36:45;11.43;;;8.07;;
9178;SDS011;71287;48.414;11.478;2023-07-24T06:39:12;8.93;;;7.78;;
9178;SDS011;71287;48.414;11.478;2023-07-24T06:41:39;11.35;;;7.80;;
9178;SDS011;71287;48.414;11.478;2023-07-24T06:44:06;8.95;;;7.45;;
9178;SDS011;71287;48.414;11.478;2023-07-24T06:46:33;11.07;;;7.70;;
9178;SDS011;71287;48.414;11.478;2023-07-24T06:48:59;10.55;;;7.30;;
9178;SDS011;71287;48.414;11.478;2023-07-24T06:51:26;9.50;;;7.20;;
9178;SDS011;71287;48.414;11.478;2023-07-24T06:53:54;9.23;;;7.18;;
9178;SDS011;71287;48.414;11.478;2023-07-24T06:56:21;9.98;;;6.90;;
9178;SDS011;71287;48.414;11.478;2023-07-24T06:58:48;10.48;;;7.53;;
9178;SDS011;71287;48.414;11.478;2023-07-24T07:01:15;9.88;;;7.45;;
9178;SDS011;71287;48.414;11.478;2023-07-24T07:03:41;8.73;;;6.85;;
9178;SDS011;71287;48.414;11.478;2023-07-24T07:06:08;8.13;;;7.32;;
9178;SDS011;71287;48.414;11.478;2023-07-24T07:08:36;8.05;;;7.25;;
9178;SDS011;71287;48.414;11.478;2023-07-24T07:11:05;8.57;;;6.97;;
9178;SDS011;71287;48.414;11.478;2023-07-24T07:13:31;10.50;;;7.45;;
9178;SDS011;71287;48.414;11.478;2023-07-24T07:15:58;9.77;;;7.63;;
9178;SDS011;71287;48.414;11.478;2023-07-24T07:18:25;8.77;;;7.00;;
9178;SDS011;71287;48.414;11.478;2023-07-24T07:20:52;9.98;;;7.35;;
9178;SDS011;71287;48.414;11.478;2023-07-24T07:23:20;7.70;;;6.47;;
9178;SDS011;71287;48.414;11.478;2023-07-24T07:25:47;7.88;;;7.10;;
9178;SDS011;71287;48.414;11.478;2023-07-24T07:28:16;6.97;;;6.20;;
9178;SDS011;71287;48.414;11.478;2023-07-24T07:30:44;7.82;;;6.13;;
9178;SDS011;71287;48.414;11.478;2023-07-24T07:33:11;7.93;;;6.80;;
9178;SDS011;71287;48.414;11.478;2023-07-24T07:35:38;7.95;;;6.50;;
9178;SDS011;71287;48.414;11.478;2023-07-24T07:38:05;8.48;;;6.28;;
9178;SDS011;71287;48.414;11.478;2023-07-24T07:40:31;7.88;;;5.45;;
9178;SDS011;71287;48.414;11.478;2023-07-24T07:42:58;6.43;;;5.82;;
9178;SDS011;71287;48.414;11.478;2023-07-24T07:45:27;7.05;;;5.70;;
9178;SDS011;71287;48.414;11.478;2023-07-24T07:47:53;9.23;;;5.47;;
9178;SDS011;71287;48.414;11.478;2023-07-24T07:50:20;7.10;;;5.65;;
9178;SDS011;71287;48.414;11.478;2023-07-24T07:52:49;5.15;;;4.65;;
9178;SDS011;71287;48.414;11.478;2023-07-24T07:55:16;5.40;;;4.82;;
9178;SDS011;71287;48.414;11.478;2023-07-24T07:57:43;6.03;;;4.90;;
9178;SDS011;71287;48.414;11.478;2023-07-24T08:00:11;7.93;;;4.30;;
9178;SDS011;71287;48.414;11.478;2023-07-24T08:02:40;6.22;;;4.22;;
9178;SDS011;71287;48.414;11.478;2023-07-24T08:05:07;6.13;;;5.22;;
9178;SDS011;71287;48.414;11.478;2023-07-24T08:07:34;5.63;;;4.75;;
9178;SDS011;71287;48.414;11.478;2023-07-24T08:10:01;5.25;;;4.70;;
9178;SDS011;71287;48.414;11.478;2023-07-24T08:12:28;6.57;;;5.47;;
9178;SDS011;71287;48.414;11.478;2023-07-24T08:14:55;8.80;;;4.60;;
9178;SDS011;71287;48.414;11.478;2023-07-24T08:17:22;5.87;;;4.77;;
9178;SDS011;71287;48.414;11.478;2023-07-24T08:19:50;6.60;;;5.00;;
9178;SDS011;71287;48.414;11.478;2023-07-24T08:22:17;6.90;;;4.90;;
9178;SDS011;71287;48.414;11.478;2023-07-24T08:24:47;8.00;;;5.30;;
9178;SDS011;71287;48.414;11.478;2023-07-24T08:27:15;6.60;;;6.00;;
9178;SDS011;71287;48.414;11.478;2023-07-24T08:29:42;5.60;;;4.97;;
9178;SDS011;71287;48.414;11.478;2023-07-24T08:32:09;6.40;;;5.57;;
9178;SDS011;71287;48.414;11.478;2023-07-24T08:34:36;6.10;;;5.00;;
9178;SDS011;71287;48.414;11.478;2023-07-24T08:37:04;5.27;;;4.77;;
9178;SDS011;71287;48.414;11.478;2023-07-24T08:39:31;7.00;;;5.30;;
9178;SDS011;71287;48.414;11.478;2023-07-24T08:41:58;8.47;;;5.73;;
9178;SDS011;71287;48.414;11.478;2023-07-24T08:44:25;8.17;;;6.03;;
9178;SDS011;71287;48.414;11.478;2023-07-24T08:46:53;7.93;;;5.50;;
9178;SDS011;71287;48.414;11.478;2023-07-24T08:49:20;6.73;;;5.83;;
9178;SDS011;71287;48.414;11.478;2023-07-24T08:51:48;8.70;;;5.23;;
9178;SDS011;71287;48.414;11.478;2023-07-24T08:54:16;5.87;;;5.27;;
9178;SDS011;71287;48.414;11.478;2023-07-24T08:56:43;6.10;;;5.50;;
9178;SDS011;71287;48.414;11.478;2023-07-24T08:59:13;6.57;;;4.57;;
9178;SDS011;71287;48.414;11.478;2023-07-24T09:01:40;4.97;;;4.57;;
9178;SDS011;71287;48.414;11.478;2023-07-24T09:04:07;5.73;;;5.13;;
9178;SDS011;71287;48.414;11.478;2023-07-24T09:06:33;6.23;;;5.00;;
9178;SDS011;71287;48.414;11.478;2023-07-24T09:09:01;6.03;;;4.67;;
9178;SDS011;71287;48.414;11.478;2023-07-24T09:11:29;6.00;;;4.63;;
9178;SDS011;71287;48.414;11.478;2023-07-24T09:13:56;6.27;;;4.47;;
9178;SDS011;71287;48.414;11.478;2023-07-24T09:16:23;5.53;;;5.03;;
9178;SDS011;71287;48.414;11.478;2023-07-24T09:18:51;5.30;;;4.80;;
9178;SDS011;71287;48.414;11.478;2023-07-24T09:21:27;5.60;;;5.00;;
9178;SDS011;71287;48.414;11.478;2023-07-24T09:23:54;5.67;;;5.17;;
9178;SDS011;71287;48.414;11.478;2023-07-24T09:26:22;5.70;;;4.90;;
9178;SDS011;71287;48.414;11.478;2023-07-24T09:28:53;6.43;;;5.53;;
9178;SDS011;71287;48.414;11.478;2023-07-24T09:31:20;6.10;;;5.50;;
9178;SDS011;71287;48.414;11.478;2023-07-24T09:33:47;5.53;;;4.83;;
9178;SDS011;71287;48.414;11.478;2023-07-24T09:36:14;8.47;;;5.00;;
9178;SDS011;71287;48.414;11.478;2023-07-24T09:38:41;7.50;;;5.32;;
9178;SDS011;71287;48.414;11.478;2023-07-24T09:41:08;5.57;;;4.82;;
9178;SDS011;71287;48.414;11.478;2023-07-24T09:43:36;5.88;;;5.28;;
9178;SDS011;71287;48.414;11.478;2023-07-24T09:46:05;5.68;;;5.18;;
9178;SDS011;71287;48.414;11.478;2023-07-24T09:48:32;5.85;;;4.93;;
9178;SDS011;71287;48.414;11.478;2023-07-24T09:51:01;5.57;;;5.00;;
9178;SDS011;71287;48.414;11.478;2023-07-24T09:53:31;5.35;;;4.63;;
9178;SDS011;71287;48.414;11.478;2023-07-24T09:56:00;6.20;;;5.10;;
9178;SDS011;71287;48.414;11.478;2023-07-24T09:58:29;5.72;;;4.97;;
9178;SDS011;71287;48.414;11.478;2023-07-24T10:00:59;7.80;;;5.25;;
9178;SDS011;71287;48.414;11.478;2023-07-24T10:03:29;5.97;;;5.47;;
9178;SDS011;71287;48.414;11.478;2023-07-24T10:05:57;6.82;;;4.80;;
9178;SDS011;71287;48.414;11.478;2023-07-24T10:08:23;5.82;;;5.20;;
9178;SDS011;71287;48.414;11.478;2023-07-24T10:10:51;6.95;;;5.10;;
9178;SDS011;71287;48.414;11.478;2023-07-24T10:13:19;5.63;;;4.60;;
9178;SDS011;71287;48.414;11.478;2023-07-24T10:15:47;5.90;;;5.25;;
9178;SDS011;71287;48.414;11.478;2023-07-24T10:18:15;5.00;;;4.57;;
9178;SDS011;71287;48.414;11.478;2023-07-24T10:20:44;9.00;;;5.03;;
9178;SDS011;71287;48.414;11.478;2023-07-24T10:23:16;6.47;;;4.90;;
9178;SDS011;71287;48.414;11.478;2023-07-24T10:25:45;5.30;;;4.80;;
9178;SDS011;71287;48.414;11.478;2023-07-24T10:28:12;5.57;;;4.43;;
9178;SDS011;71287;48.414;11.478;2023-07-24T10:30:41;5.25;;;4.50;;
9178;SDS011;71287;48.414;11.478;2023-07-24T10:33:09;6.28;;;4.78;;
9178;SDS011;71287;48.414;11.478;2023-07-24T10:35:37;7.53;;;4.53;;
9178;SDS011;71287;48.414;11.478;2023-07-24T10:38:10;6.00;;;4.60;;
9178;SDS011;71287;48.414;11.478;2023-07-24T10:40:39;6.68;;;4.82;;
9178;SDS011;71287;48.414;11.478;2023-07-24T10:43:06;5.03;;;4.53;;
9178;SDS011;71287;48.414;11.478;2023-07-24T10:45:45;4.97;;;4.38;;
9178;SDS011;71287;48.414;11.478;2023-07-24T10:48:13;5.93;;;5.03;;
9178;SDS011;71287;48.414;11.478;2023-07-24T10:50:41;6.18;;;4.63;;
9178;SDS011;71287;48.414;11.478;2023-07-24T10:53:10;5.45;;;4.80;;
9178;SDS011;71287;48.414;11.478;2023-07-24T10:55:40;4.97;;;4.57;;
9178;SDS011;71287;48.414;11.478;2023-07-24T10:58:07;5.25;;;4.75;;
9178;SDS011;71287;48.414;11.478;2023-07-24T11:00:35;5.53;;;4.55;;
9178;SDS011;71287;48.414;11.478;2023-07-24T11:03:02;5.18;;;4.60;;
9178;SDS011;71287;48.414;11.478;2023-07-24T11:05:29;5.88;;;4.45;;
9178;SDS011;71287;48.414;11.478;2023-07-24T11:07:56;5.00;;;4.50;;
9178;SDS011;71287;48.414;11.478;2023-07-24T11:10:24;5.45;;;4.95;;
9178;SDS011;71287;48.414;11.478;2023-07-24T11:12:52;5.95;;;4.78;;
9178;SDS011;71287;48.414;11.478;2023-07-24T11:15:23;5.18;;;4.53;;
9178;SDS011;71287;48.414;11.478;2023-07-24T11:17:52;7.03;;;5.18;;
9178;SDS011;71287;48.414;11.478;2023-07-24T11:20:19;5.65;;;5.13;;
9178;SDS011;71287;48.414;11.478;2023-07-24T11:22:45;6.80;;;4.70;;
9178;SDS011;71287;48.414;11.478;2023-07-24T11:25:12;4.85;;;4.45;;
9178;SDS011;71287;48.414;11.478;2023-07-24T11:27:41;6.25;;;4.22;;
9178;SDS011;71287;48.414;11.478;2023-07-24T11:30:09;4.93;;;3.90;;
9178;SDS011;71287;48.414;11.478;2023-07-24T11:32:38;4.50;;;3.80;;
9178;SDS011;71287;48.414;11.478;2023-07-24T11:35:06;4.30;;;3.90;;
9178;SDS011;71287;48.414;11.478;2023-07-24T11:37:34;4.13;;;3.72;;
9178;SDS011;71287;48.414;11.478;2023-07-24T11:40:02;3.60;;;3.30;;
9178;SDS011;71287;48.414;11.478;2023-07-24T11:42:36;3.95;;;3.55;;
9178;SDS011;71287;48.414;11.478;2023-07-24T11:45:06;3.53;;;3.22;;
9178;SDS011;71287;48.414;11.478;2023-07-24T11:47:44;4.22;;;3.38;;
9178;SDS011;71287;48.414;11.478;2023-07-24T11:50:12;5.18;;;2.97;;
9178;SDS011;71287;48.414;11.478;2023-07-24T11:52:39;3.78;;;3.17;;
9178;SDS011;71287;48.414;11.478;2023-07-24T11:55:09;3.30;;;3.05;;
9178;SDS011;71287;48.414;11.478;2023-07-24T11:57:35;3.55;;;2.97;;
9178;SDS011;71287;48.414;11.478;2023-07-24T12:00:03;6.82;;;3.45;;
9178;SDS011;71287;48.414;11.478;2023-07-24T12:02:32;4.30;;;3.35;;
9178;SDS011;71287;48.414;11.478;2023-07-24T12:04:59;3.80;;;3.05;;
9178;SDS011;71287;48.414;11.478;2023-07-24T12:07:31;3.88;;;3.47;;
9178;SDS011;71287;48.414;11.478;2023-07-24T12:09:59;3.58;;;3.28;;
9178;SDS011;71287;48.414;11.478;2023-07-24T12:12:36;4.47;;;2.65;;
9178;SDS011;71287;48.414;11.478;2023-07-24T12:15:04;6.15;;;3.05;;
9178;SDS011;71287;48.414;11.478;2023-07-24T12:17:33;4.45;;;3.33;;
9178;SDS011;71287;48.414;11.478;2023-07-24T12:19:59;3.92;;;3.38;;
9178;SDS011;71287;48.414;11.478;2023-07-24T12:22:27;5.05;;;3.08;;
9178;SDS011;71287;48.414;11.478;2023-07-24T12:24:54;3.63;;;3.22;;
9178;SDS011;71287;48.414;11.478;2023-07-24T12:27:21;5.15;;;3.28;;
9178;SDS011;71287;48.414;11.478;2023-07-24T12:29:47;5.13;;;3.00;;
9178;SDS011;71287;48.414;11.478;2023-07-24T12:32:14;4.82;;;3.55;;
9178;SDS011;71287;48.414;11.478;2023-07-24T12:34:42;3.45;;;3.10;;
9178;SDS011;71287;48.414;11.478;2023-07-24T12:37:09;3.80;;;3.42;;
9178;SDS011;71287;48.414;11.478;2023-07-24T12:39:36;3.75;;;3.20;;
9178;SDS011;71287;48.414;11.478;2023-07-24T12:42:03;4.90;;;3.60;;
9178;SDS011;71287;48.414;11.478;2023-07-24T12:44:31;3.50;;;3.05;;
9178;SDS011;71287;48.414;11.478;2023-07-24T12:46:57;4.13;;;2.97;;
9178;SDS011;71287;48.414;11.478;2023-07-24T12:49:24;4.05;;;3.65;;
9178;SDS011;71287;48.414;11.478;2023-07-24T12:51:52;4.05;;;3.63;;
9178;SDS011;71287;48.414;11.478;2023-07-24T12:54:19;5.07;;;3.65;;
9178;SDS011;71287;48.414;11.478;2023-07-24T12:56:47;4.35;;;3.20;;
9178;SDS011;71287;48.414;11.478;2023-07-24T12:59:14;3.30;;;3.05;;
9178;SDS011;71287;48.414;11.478;2023-07-24T13:01:41;3.50;;;3.05;;
9178;SDS011;71287;48.414;11.478;2023-07-24T13:04:08;3.83;;;3.05;;
9178;SDS011;71287;48.414;11.478;2023-07-24T13:06:35;4.63;;;3.35;;
9178;SDS011;71287;48.414;11.478;2023-07-24T13:09:03;3.70;;;3.40;;
9178;SDS011;71287;48.414;11.478;2023-07-24T13:11:30;3.25;;;3.05;;
9178;SDS011;71287;48.414;11.478;2023-07-24T13:13:57;5.05;;;3.33;;
9178;SDS011;71287;48.414;11.478;2023-07-24T13:16:24;3.40;;;3.10;;
9178;SDS011;71287;48.414;11.478;2023-07-24T13:18:50;3.15;;;2.85;;
9178;SDS011;71287;48.414;11.478;2023-07-24T13:21:17;3.33;;;3.03;;
9178;SDS011;71287;48.414;11.478;2023-07-24T13:23:44;3.45;;;3.08;;
9178;SDS011;71287;48.414;11.478;2023-07-24T13:26:12;3.67;;;3.28;;
9178;SDS011;71287;48.414;11.478;2023-07-24T13:28:39;3.40;;;2.97;;
9178;SDS011;71287;48.414;11.478;2023-07-24T13:31:13;3.88;;;3.47;;
9178;SDS011;71287;48.414;11.478;2023-07-24T13:33:40;3.45;;;3.15;;
9178;SDS011;71287;48.414;11.478;2023-07-24T13:36:07;4.10;;;3.40;;
9178;SDS011;71287;48.414;11.478;2023-07-24T13:38:34;3.00;;;2.80;;
9178;SDS011;71287;48.414;11.478;2023-07-24T13:41:01;3.10;;;2.80;;
9178;SDS011;71287;48.414;11.478;2023-07-24T13:43:30;2.80;;;2.60;;
9178;SDS011;71287;48.414;11.478;2023-07-24T13:45:59;4.88;;;3.05;;
9178;SDS011;71287;48.414;11.478;2023-07-24T13:48:27;2.88;;;2.67;;
9178;SDS011;71287;48.414;11.478;2023-07-24T13:50:54;3.42;;;3.13;;
9178;SDS011;71287;48.414;11.478;2023-07-24T13:53:21;3.95;;;3.00;;
9178;SDS011;71287;48.414;11.478;2023-07-24T13:55:49;3.13;;;2.83;;
9178;SDS011;71287;48.414;11.478;2023-07-24T13:58:16;4.07;;;3.00;;
9178;SDS011;71287;48.414;11.478;2023-07-24T14:00:44;3.70;;;3.15;;
9178;SDS011;71287;48.414;11.478;2023-07-24T14:03:11;3.00;;;2.80;;
9178;SDS011;71287;48.414;11.478;2023-07-24T14:05:38;3.53;;;3.00;;
9178;SDS011;71287;48.414;11.478;2023-07-24T14:08:06;3.10;;;2.75;;
9178;SDS011;71287;48.414;11.478;2023-07-24T14:10:34;2.90;;;2.70;;
9178;SDS011;71287;48.414;11.478;2023-07-24T14:13:01;2.75;;;2.55;;
9178;SDS011;71287;48.414;11.478;2023-07-24T14:15:28;2.90;;;2.60;;
9178;SDS011;71287;48.414;11.478;2023-07-24T14:17:56;2.92;;;2.72;;
9178;SDS011;71287;48.414;11.478;2023-07-24T14:20:23;3.97;;;3.05;;
9178;SDS011;71287;48.414;11.478;2023-07-24T14:22:49;2.50;;;2.30;;
9178;SDS011;71287;48.414;11.478;2023-07-24T14:25:16;2.65;;;2.45;;
9178;SDS011;71287;48.414;11.478;2023-07-24T14:27:43;2.60;;;2.40;;
9178;SDS011;71287;48.414;11.478;2023-07-24T14:30:10;3.40;;;3.10;;
9178;SDS011;71287;48.414;11.478;2023-07-24T14:32:37;2.95;;;2.65;;
9178;SDS011;71287;48.414;11.478;2023-07-24T14:35:06;2.63;;;2.42;;
9178;SDS011;71287;48.414;11.478;2023-07-24T14:37:33;2.55;;;2.35;;
9178;SDS011;71287;48.414;11.478;2023-07-24T14:39:59;3.33;;;2.95;;
9178;SDS011;71287;48.414;11.478;2023-07-24T14:42:27;3.67;;;2.60;;
9178;SDS011;71287;48.414;11.478;2023-07-24T14:44:54;2.45;;;2.25;;
9178;SDS011;71287;48.414;11.478;2023-07-24T14:47:27;2.42;;;2.22;;